Time;durP1;ratioP1;P1;durP2;ratioP2;P2;SDS_P1;SDS_P2;PMS_P1;PMS_P2;Temp;Humidity;BMP_temperature;BMP_pressure;BME280_temperature;BME280_humidity;BME280_pressure;Samples;Min_cycle;Max_cycle;Signal;HPM_P1;HPM_P2
2021/04/14 00:01:24;;;;;;;7.78;6.30;;;0.30;99.90;;;;;;5023699;28;20507;-70
2021/04/14 00:03:50;;;;;;;9.15;6.25;;;0.30;99.90;;;;;;5030803;28;20026;-70
2021/04/14 00:06:16;;;;;;;6.97;5.40;;;0.30;99.90;;;;;;5023709;28;20468;-70
2021/04/14 00:08:41;;;;;;;6.55;5.85;;;0.40;99.90;;;;;;5020560;28;20096;-70
2021/04/14 00:11:14;;;;;;;7.95;5.43;;;0.30;99.90;;;;;;5022963;28;20026;-70
2021/04/14 00:13:42;;;;;;;7.28;5.97;;;0.30;99.90;;;;;;5027063;28;20030;-71
2021/04/14 00:16:20;;;;;;;6.05;5.35;;;0.20;99.90;;;;;;5023360;28;20108;-71
2021/04/14 00:18:47;;;;;;;7.95;6.18;;;0.30;99.90;;;;;;5020402;28;20391;-70
2021/04/14 00:21:13;;;;;;;7.75;5.30;;;0.40;99.90;;;;;;5033305;28;20029;-72
2021/04/14 00:23:39;;;;;;;5.82;4.85;;;0.50;99.90;;;;;;5020029;28;20458;-71
2021/04/14 00:26:06;;;;;;;7.72;5.90;;;0.50;99.90;;;;;;5020829;28;20026;-73
2021/04/14 00:28:33;;;;;;;6.55;5.03;;;0.40;99.90;;;;;;5025646;28;20026;-72
2021/04/14 00:30:59;;;;;;;5.80;5.20;;;0.40;99.90;;;;;;5026788;28;20112;-72
2021/04/14 00:33:24;;;;;;;7.80;5.25;;;0.10;99.90;;;;;;5018605;28;20136;-72
2021/04/14 00:35:50;;;;;;;7.55;5.40;;;-0.20;99.90;;;;;;5033618;28;20033;-72
2021/04/14 00:38:18;;;;;;;6.25;4.72;;;0.00;99.90;;;;;;5026653;28;20034;-72
2021/04/14 00:40:47;;;;;;;7.72;4.75;;;-0.10;99.90;;;;;;5027278;28;20546;-72
2021/04/14 00:43:17;;;;;;;7.60;5.65;;;0.00;99.90;;;;;;5024288;28;20076;-72
2021/04/14 00:45:43;;;;;;;5.80;4.60;;;0.10;99.90;;;;;;5026591;28;20021;-71
2021/04/14 00:48:09;;;;;;;7.15;4.95;;;-0.10;99.90;;;;;;5020111;28;20387;-72
2021/04/14 00:50:35;;;;;;;5.13;4.63;;;0.00;99.90;;;;;;5019859;28;20061;-71
2021/04/14 00:53:02;;;;;;;6.78;4.78;;;0.20;99.90;;;;;;5024776;28;20018;-72
2021/04/14 00:55:30;;;;;;;7.45;4.82;;;0.30;99.90;;;;;;5026369;28;20037;-73
2021/04/14 00:57:55;;;;;;;6.63;4.45;;;0.20;99.90;;;;;;5021775;28;20021;-72
2021/04/14 01:00:38;;;;;;;6.32;4.50;;;0.20;99.90;;;;;;5019710;28;20041;-72
2021/04/14 01:03:07;;;;;;;6.03;5.15;;;0.30;99.90;;;;;;5020805;28;20025;-71
2021/04/14 01:05:36;;;;;;;9.05;6.30;;;-0.20;99.90;;;;;;5026054;28;20472;-73
2021/04/14 01:08:02;;;;;;;8.15;5.60;;;-0.70;99.90;;;;;;5011822;28;20037;-73
2021/04/14 01:10:28;;;;;;;7.97;5.10;;;-0.50;99.90;;;;;;5024969;28;20030;-74
2021/04/14 01:12:54;;;;;;;8.52;5.43;;;-0.40;99.90;;;;;;5024206;28;20057;-73
2021/04/14 01:15:29;;;;;;;9.32;5.07;;;-0.30;99.90;;;;;;5023458;28;20507;-73
2021/04/14 01:17:55;;;;;;;5.35;4.85;;;-0.40;99.90;;;;;;5040267;28;20364;-73
2021/04/14 01:20:20;;;;;;;5.30;4.47;;;-0.40;99.90;;;;;;5019347;28;20079;-73
2021/04/14 01:22:46;;;;;;;7.65;4.47;;;-0.10;99.90;;;;;;5019933;28;20385;-73
2021/04/14 01:25:16;;;;;;;5.97;4.97;;;-0.10;99.90;;;;;;5025822;28;20034;-72
2021/04/14 01:27:42;;;;;;;8.88;5.13;;;-0.30;99.90;;;;;;5012735;28;20022;-73
2021/04/14 01:30:20;;;;;;;5.60;4.85;;;-0.60;99.90;;;;;;5032123;28;20479;-73
2021/04/14 01:32:46;;;;;;;7.63;5.30;;;-0.40;99.90;;;;;;5017161;28;20526;-73
2021/04/14 01:35:12;;;;;;;6.90;5.72;;;-0.60;99.90;;;;;;5031979;28;20017;-72
2021/04/14 01:37:38;;;;;;;7.13;5.20;;;-0.70;99.90;;;;;;5031360;28;20080;-72
2021/04/14 01:40:06;;;;;;;7.75;5.50;;;-0.70;99.90;;;;;;5024822;28;20022;-72
2021/04/14 01:42:31;;;;;;;7.80;4.65;;;-0.60;99.90;;;;;;5011877;28;20075;-70
2021/04/14 01:44:57;;;;;;;6.85;5.30;;;-0.60;99.90;;;;;;5012886;28;20034;-71
2021/04/14 01:47:22;;;;;;;9.07;5.97;;;-0.50;99.90;;;;;;5025399;28;20049;-71
2021/04/14 01:49:48;;;;;;;7.82;5.50;;;-0.60;99.90;;;;;;5020213;28;20025;-72
2021/04/14 01:52:13;;;;;;;8.60;5.50;;;-0.60;99.90;;;;;;5017796;28;20018;-72
2021/04/14 01:54:39;;;;;;;9.13;5.63;;;-0.40;99.90;;;;;;5023904;28;20459;-71
2021/04/14 01:57:05;;;;;;;6.55;5.47;;;-0.50;99.90;;;;;;5025403;28;20566;-72
2021/04/14 01:59:31;;;;;;;8.48;5.57;;;-0.60;99.90;;;;;;5020076;28;20032;-71
2021/04/14 02:01:56;;;;;;;8.63;5.70;;;-0.80;99.90;;;;;;5018672;28;20034;-72
2021/04/14 02:04:22;;;;;;;7.03;5.20;;;-0.80;99.90;;;;;;5038376;28;20033;-72
2021/04/14 02:06:47;;;;;;;6.10;5.25;;;-0.80;99.90;;;;;;5050260;28;20055;-72
2021/04/14 02:09:13;;;;;;;6.80;5.43;;;-0.70;99.90;;;;;;5022608;28;20030;-72
2021/04/14 02:11:39;;;;;;;7.75;5.35;;;-0.70;99.90;;;;;;5013302;28;20105;-72
2021/04/14 02:14:06;;;;;;;10.63;6.43;;;-0.90;99.90;;;;;;5022537;28;20113;-72
2021/04/14 02:16:31;;;;;;;8.13;5.88;;;-1.00;99.90;;;;;;5013248;28;20080;-72
2021/04/14 02:18:57;;;;;;;8.50;6.93;;;-0.80;99.90;;;;;;5024006;28;20029;-71
2021/04/14 02:21:23;;;;;;;9.25;6.65;;;-0.80;99.90;;;;;;5025228;28;20033;-70
2021/04/14 02:23:49;;;;;;;9.88;8.68;;;-0.90;99.90;;;;;;5017999;28;20037;-70
2021/04/14 02:26:18;;;;;;;10.27;9.30;;;-0.90;99.90;;;;;;5018380;28;20031;-70
2021/04/14 02:28:45;;;;;;;11.18;8.52;;;-1.00;99.90;;;;;;5022164;28;20105;-71
2021/04/14 02:31:13;;;;;;;8.63;7.57;;;-1.00;99.90;;;;;;5025189;28;20022;-71
2021/04/14 02:33:39;;;;;;;9.10;7.20;;;-1.00;99.90;;;;;;5011673;28;20022;-73
2021/04/14 02:36:05;;;;;;;8.80;6.93;;;-1.10;99.90;;;;;;5027275;28;20036;-72
2021/04/14 02:38:31;;;;;;;8.50;6.70;;;-1.00;99.90;;;;;;5023035;28;20457;-70
2021/04/14 02:40:56;;;;;;;9.02;6.43;;;-0.90;99.90;;;;;;5012734;28;20041;-71
2021/04/14 02:43:23;;;;;;;9.98;5.90;;;-1.10;99.90;;;;;;5023305;28;20030;-72
2021/04/14 02:45:49;;;;;;;6.15;5.35;;;-1.00;99.90;;;;;;5027623;28;20037;-74
2021/04/14 02:48:15;;;;;;;7.22;5.57;;;-0.90;99.90;;;;;;5023041;28;20021;-71
2021/04/14 02:50:40;;;;;;;8.10;5.32;;;-0.90;99.90;;;;;;5021918;28;20026;-71
2021/04/14 02:53:07;;;;;;;9.55;5.03;;;-0.80;99.90;;;;;;5027103;28;20089;-71
2021/04/14 02:55:34;;;;;;;6.80;5.10;;;-1.00;99.90;;;;;;5028627;28;20498;-71
2021/04/14 02:58:00;;;;;;;9.27;4.60;;;-1.00;99.90;;;;;;5023717;28;20060;-72
2021/04/14 03:00:27;;;;;;;7.28;5.30;;;-1.00;99.90;;;;;;5022081;28;20061;-71
2021/04/14 03:02:53;;;;;;;6.80;6.10;;;-0.90;99.90;;;;;;5026628;28;20088;-72
2021/04/14 03:05:23;;;;;;;6.88;6.13;;;-1.20;99.90;;;;;;5043816;28;20041;-71
2021/04/14 03:07:49;;;;;;;7.65;6.18;;;-1.20;99.90;;;;;;5025848;28;20109;-71
2021/04/14 03:10:14;;;;;;;7.97;5.72;;;-1.30;99.90;;;;;;5028549;28;20482;-71
2021/04/14 03:15:24;;;;;;;9.07;5.72;;;-1.40;99.90;;;;;;5089489;28;20340;-70
2021/04/14 03:17:50;;;;;;;8.27;5.72;;;-1.30;99.90;;;;;;5078385;28;20040;-71
2021/04/14 03:20:16;;;;;;;5.32;4.82;;;-1.30;99.90;;;;;;5072793;28;20028;-70
2021/04/14 03:22:43;;;;;;;6.93;5.15;;;-1.20;99.90;;;;;;5074316;28;20049;-70
2021/04/14 03:25:09;;;;;;;7.93;5.88;;;-1.20;99.90;;;;;;5062401;28;20036;-71
2021/04/14 03:27:35;;;;;;;7.03;5.30;;;-1.30;99.90;;;;;;5047565;28;20550;-71
2021/04/14 03:30:00;;;;;;;7.55;5.88;;;-1.30;99.90;;;;;;5053682;28;20033;-71
2021/04/14 03:32:26;;;;;;;7.65;5.93;;;-1.40;99.90;;;;;;5069088;28;20483;-70
2021/04/14 03:34:52;;;;;;;9.05;5.18;;;-1.40;99.90;;;;;;5049775;28;20551;-71
2021/04/14 03:37:17;;;;;;;10.80;5.10;;;-1.60;99.90;;;;;;5060902;28;20386;-71
2021/04/14 03:39:43;;;;;;;9.32;5.13;;;-1.60;99.90;;;;;;5055388;28;20013;-71
2021/04/14 03:42:08;;;;;;;6.80;5.25;;;-1.40;99.90;;;;;;5068695;28;20372;-71
2021/04/14 03:44:36;;;;;;;5.88;4.47;;;-1.20;99.90;;;;;;5054959;28;20033;-71
2021/04/14 03:47:03;;;;;;;8.73;4.93;;;-1.10;99.90;;;;;;5068622;28;20056;-71
2021/04/14 03:49:30;;;;;;;6.28;4.90;;;-1.20;99.90;;;;;;5062862;28;20124;-72
2021/04/14 03:51:56;;;;;;;6.13;4.63;;;-1.20;99.90;;;;;;5060802;28;20029;-71
2021/04/14 03:54:21;;;;;;;7.93;5.32;;;-1.20;99.90;;;;;;5068139;28;20025;-72
2021/04/14 03:56:47;;;;;;;7.85;5.28;;;-1.30;99.90;;;;;;5056146;28;20014;-72
2021/04/14 03:59:12;;;;;;;8.25;5.68;;;-1.40;99.90;;;;;;5060513;28;20494;-71
2021/04/14 04:01:38;;;;;;;5.03;4.45;;;-1.40;99.90;;;;;;5060200;28;20025;-72
2021/04/14 04:04:04;;;;;;;6.53;5.28;;;-1.50;99.90;;;;;;5054650;28;20025;-71
2021/04/14 04:06:29;;;;;;;8.43;5.55;;;-1.50;99.90;;;;;;5066952;28;20123;-72
2021/04/14 04:08:55;;;;;;;12.07;5.72;;;-1.50;99.90;;;;;;5049717;28;20025;-72
2021/04/14 04:11:23;;;;;;;5.75;5.07;;;-1.50;99.90;;;;;;5048206;28;20025;-72
2021/04/14 04:13:50;;;;;;;7.22;5.20;;;-1.60;99.90;;;;;;5059888;28;20043;-72
2021/04/14 04:16:16;;;;;;;8.85;5.32;;;-1.50;99.90;;;;;;5059973;28;20052;-71
2021/04/14 04:18:41;;;;;;;8.05;5.40;;;-1.40;99.90;;;;;;5049474;28;20458;-72
2021/04/14 04:21:08;;;;;;;7.85;5.70;;;-1.40;99.90;;;;;;5058277;28;20394;-71
2021/04/14 04:23:35;;;;;;;7.00;5.68;;;-1.30;99.90;;;;;;5052836;28;20028;-71
2021/04/14 04:26:01;;;;;;;10.32;6.93;;;-1.40;99.90;;;;;;5046789;28;20449;-72
2021/04/14 04:28:27;;;;;;;8.63;5.88;;;-1.30;99.90;;;;;;5040192;28;20033;-71
2021/04/14 04:30:52;;;;;;;13.27;6.15;;;-1.40;99.90;;;;;;5043222;28;20100;-71
2021/04/14 04:33:19;;;;;;;8.00;5.68;;;-1.50;99.90;;;;;;5047681;28;20026;-71
2021/04/14 04:35:45;;;;;;;11.60;5.93;;;-1.70;99.90;;;;;;5034438;28;20021;-72
2021/04/14 04:38:10;;;;;;;8.55;6.30;;;-1.80;99.90;;;;;;5046420;28;20423;-70
2021/04/14 04:40:36;;;;;;;7.32;5.93;;;-1.80;99.90;;;;;;5046948;28;20467;-71
2021/04/14 04:43:02;;;;;;;7.70;5.50;;;-2.00;99.90;;;;;;5035075;28;20037;-71
2021/04/14 04:45:30;;;;;;;8.75;5.03;;;-1.80;99.90;;;;;;5034024;28;20499;-72
2021/04/14 04:47:56;;;;;;;9.63;5.43;;;-1.50;99.90;;;;;;5034162;28;20471;-71
2021/04/14 04:50:27;;;;;;;11.07;7.18;;;-1.50;99.90;;;;;;5034221;28;20064;-71
2021/04/14 04:52:57;;;;;;;14.85;10.50;;;-1.70;99.90;;;;;;5040513;28;20028;-71
2021/04/14 04:55:24;;;;;;;31.67;20.00;;;-1.70;99.90;;;;;;5040594;28;20076;-71
2021/04/14 04:57:50;;;;;;;45.28;27.63;;;-1.70;99.90;;;;;;5046506;28;20103;-70
2021/04/14 05:00:17;;;;;;;30.60;20.27;;;-1.60;99.90;;;;;;5047289;28;20021;-70
2021/04/14 05:02:42;;;;;;;25.10;17.52;;;-1.70;99.90;;;;;;5040365;28;20024;-71
2021/04/14 05:05:15;;;;;;;34.55;17.83;;;-1.70;99.90;;;;;;5040225;28;20387;-71
2021/04/14 05:07:41;;;;;;;23.65;15.43;;;-1.70;99.90;;;;;;5045209;28;20081;-71
2021/04/14 05:10:07;;;;;;;20.90;10.82;;;-1.70;99.90;;;;;;5047141;28;20029;-71
2021/04/14 05:12:33;;;;;;;10.85;9.20;;;-1.60;99.90;;;;;;5042128;28;20045;-71
2021/04/14 05:14:59;;;;;;;15.75;9.55;;;-1.50;99.90;;;;;;5051511;28;20032;-69
2021/04/14 05:17:25;;;;;;;14.15;8.45;;;-1.40;99.90;;;;;;5042107;28;20048;-70
2021/04/14 05:19:50;;;;;;;10.45;7.13;;;-1.40;99.90;;;;;;5039916;28;20061;-71
2021/04/14 05:22:16;;;;;;;16.42;11.40;;;-1.40;99.90;;;;;;5053543;28;20048;-70
2021/04/14 05:24:41;;;;;;;16.50;12.65;;;-1.30;99.90;;;;;;5038304;28;20036;-71
2021/04/14 05:27:08;;;;;;;10.38;6.88;;;-1.40;99.90;;;;;;5033585;28;20037;-71
2021/04/14 05:29:33;;;;;;;8.15;6.75;;;-1.30;99.90;;;;;;5046825;28;20079;-71
2021/04/14 05:31:59;;;;;;;9.50;7.68;;;-1.20;99.90;;;;;;5041382;28;20033;-71
2021/04/14 05:34:24;;;;;;;14.02;10.20;;;-1.20;99.90;;;;;;5038039;28;20031;-70
2021/04/14 05:36:52;;;;;;;13.45;7.57;;;-1.00;99.90;;;;;;5040827;28;20021;-71
2021/04/14 05:39:18;;;;;;;9.65;6.35;;;-0.80;99.90;;;;;;5039685;28;20052;-70
2021/04/14 05:41:44;;;;;;;7.55;6.47;;;-0.60;99.90;;;;;;5044341;28;20032;-71
2021/04/14 05:44:09;;;;;;;6.85;5.95;;;-0.60;99.90;;;;;;5032852;28;20388;-70
2021/04/14 05:46:35;;;;;;;9.05;6.47;;;-0.60;99.90;;;;;;5033089;28;20029;-70
2021/04/14 05:49:00;;;;;;;11.75;7.50;;;-0.50;99.90;;;;;;5045061;28;20091;-70
2021/04/14 05:51:30;;;;;;;9.90;6.63;;;-0.40;99.90;;;;;;5041691;28;20506;-70
2021/04/14 05:53:56;;;;;;;7.90;6.20;;;-0.20;99.90;;;;;;5039147;28;20025;-72
2021/04/14 05:56:23;;;;;;;10.70;6.97;;;-0.10;99.90;;;;;;5043938;28;20021;-70
2021/04/14 05:58:49;;;;;;;9.15;6.28;;;0.10;99.90;;;;;;5032756;28;20048;-70
2021/04/14 06:01:20;;;;;;;7.63;5.90;;;0.20;99.90;;;;;;5041915;28;20016;-71
2021/04/14 06:03:47;;;;;;;8.13;6.88;;;0.30;99.90;;;;;;5039155;28;20056;-72
2021/04/14 06:06:13;;;;;;;7.05;6.20;;;0.30;99.90;;;;;;5042718;28;20037;-71
2021/04/14 06:08:39;;;;;;;8.52;6.75;;;0.30;99.90;;;;;;5046202;28;20111;-71
2021/04/14 06:11:04;;;;;;;11.70;6.75;;;0.50;99.90;;;;;;5042349;28;20067;-71
2021/04/14 06:13:31;;;;;;;8.70;6.90;;;0.60;99.90;;;;;;5038736;28;20446;-71
2021/04/14 06:15:57;;;;;;;8.40;6.30;;;0.50;99.90;;;;;;5043019;28;20025;-71
2021/04/14 06:18:22;;;;;;;9.70;7.03;;;0.40;99.90;;;;;;5045869;28;20029;-71
2021/04/14 06:20:48;;;;;;;8.00;6.40;;;0.50;99.90;;;;;;5040764;28;20021;-71
2021/04/14 06:23:17;;;;;;;7.50;5.70;;;0.50;99.90;;;;;;5039034;28;20032;-71
2021/04/14 06:28:39;;;;;;;8.88;7.07;;;1.00;99.90;;;;;;5044530;28;20075;-71
2021/04/14 06:31:06;;;;;;;7.63;6.40;;;1.00;99.90;;;;;;5046619;28;20086;-71
2021/04/14 06:33:35;;;;;;;11.63;8.90;;;0.90;99.90;;;;;;5043166;28;20037;-71
2021/04/14 06:36:01;;;;;;;7.47;6.10;;;1.00;99.90;;;;;;5033970;28;20117;-71
2021/04/14 06:38:30;;;;;;;6.90;6.10;;;1.00;99.90;;;;;;5043865;28;20149;-71
2021/04/14 06:41:25;;;;;;;7.97;6.30;;;0.90;99.90;;;;;;5034083;28;20495;-72
2021/04/14 06:43:56;;;;;;;6.97;6.28;;;1.00;99.90;;;;;;5039083;28;20025;-71
2021/04/14 06:46:32;;;;;;;10.63;7.18;;;1.10;99.90;;;;;;5025886;28;20029;-71
2021/04/14 06:49:01;;;;;;;9.00;6.82;;;0.80;99.90;;;;;;5049140;28;20081;-71
2021/04/14 06:51:33;;;;;;;10.18;7.03;;;0.90;99.90;;;;;;5040386;28;20494;-71
2021/04/14 06:54:29;;;;;;;8.70;6.78;;;0.90;99.90;;;;;;5035738;28;20037;-71
2021/04/14 06:57:02;;;;;;;10.13;7.70;;;1.00;99.90;;;;;;5045179;28;20025;-71
2021/04/14 06:59:31;;;;;;;10.77;7.63;;;1.00;99.90;;;;;;5027258;28;20036;-71
2021/04/14 07:02:10;;;;;;;11.30;7.68;;;1.10;99.90;;;;;;5037251;28;20032;-71
2021/04/14 07:04:44;;;;;;;8.13;7.20;;;1.30;99.90;;;;;;5040269;28;20112;-71
2021/04/14 07:07:18;;;;;;;10.32;7.20;;;1.50;99.90;;;;;;5034718;28;20487;-71
2021/04/14 07:09:47;;;;;;;9.32;7.95;;;1.60;99.90;;;;;;5039746;28;20034;-71
2021/04/14 07:12:18;;;;;;;8.48;6.68;;;1.70;99.90;;;;;;5050803;28;20052;-71
2021/04/14 07:14:44;;;;;;;9.80;6.50;;;2.10;99.90;;;;;;5038362;28;20048;-71
2021/04/14 07:17:28;;;;;;;7.80;6.65;;;1.90;99.90;;;;;;5044966;28;20034;-71
2021/04/14 07:20:43;;;;;;;9.80;7.10;;;2.10;99.90;;;;;;5045332;28;20029;-71
2021/04/14 07:23:20;;;;;;;9.25;7.53;;;2.30;99.90;;;;;;5036877;28;20537;-71
2021/04/14 07:26:07;;;;;;;10.15;7.07;;;2.40;99.90;;;;;;5040569;28;20028;-71
2021/04/14 07:29:01;;;;;;;7.65;6.38;;;2.60;99.90;;;;;;5024770;28;20033;-71
2021/04/14 07:31:43;;;;;;;12.13;6.88;;;2.50;99.90;;;;;;5036625;28;20021;-71
2021/04/14 07:34:24;;;;;;;9.73;5.90;;;2.40;99.90;;;;;;5038329;28;20029;-71
2021/04/14 07:37:18;;;;;;;8.55;6.90;;;2.80;99.90;;;;;;5027911;28;20024;-71
2021/04/14 07:40:17;;;;;;;8.57;6.30;;;2.90;99.90;;;;;;5036851;28;20025;-71
2021/04/14 07:43:13;;;;;;;6.88;5.47;;;3.10;99.90;;;;;;5047750;28;20532;-71
2021/04/14 07:45:40;;;;;;;8.00;6.15;;;3.20;99.90;;;;;;5031314;28;20030;-71
2021/04/14 07:48:13;;;;;;;9.90;6.50;;;3.40;99.90;;;;;;5039100;28;20033;-71
2021/04/14 07:50:45;;;;;;;9.63;6.35;;;3.60;99.90;;;;;;5036145;28;20423;-71
2021/04/14 07:53:19;;;;;;;9.73;5.95;;;3.70;99.90;;;;;;5040759;28;20025;-71
2021/04/14 07:55:46;;;;;;;9.25;6.45;;;3.80;99.90;;;;;;5033830;28;20029;-71
2021/04/14 07:58:24;;;;;;;7.32;5.43;;;3.80;99.90;;;;;;5031335;28;20055;-71
2021/04/14 08:00:50;;;;;;;8.43;5.72;;;4.00;99.90;;;;;;5046428;28;20054;-71
2021/04/14 08:03:28;;;;;;;6.22;5.68;;;4.00;99.90;;;;;;5035338;28;20424;-71
2021/04/14 08:06:17;;;;;;;6.95;6.18;;;3.70;99.90;;;;;;5029946;28;20457;-71
2021/04/14 08:08:45;;;;;;;9.82;5.90;;;3.70;99.90;;;;;;5041487;28;20032;-71
2021/04/14 08:11:17;;;;;;;8.68;5.97;;;4.10;99.90;;;;;;5044195;28;20032;-71
2021/04/14 08:13:43;;;;;;;10.13;6.47;;;3.70;99.90;;;;;;5047685;28;20045;-71
2021/04/14 08:16:33;;;;;;;10.02;6.30;;;3.60;99.90;;;;;;5046405;28;20025;-71
2021/04/14 08:19:35;;;;;;;9.73;6.18;;;3.60;99.90;;;;;;5031573;28;20021;-71
2021/04/14 08:22:05;;;;;;;8.02;5.72;;;4.00;99.90;;;;;;5028175;28;20037;-71
2021/04/14 08:24:39;;;;;;;9.15;5.60;;;4.20;99.90;;;;;;5040790;28;20057;-71
2021/04/14 08:27:32;;;;;;;8.65;5.78;;;4.40;99.90;;;;;;5046694;28;20495;-72
2021/04/14 08:30:04;;;;;;;7.45;5.68;;;4.30;99.90;;;;;;5047994;28;20021;-71
2021/04/14 08:32:52;;;;;;;9.88;5.47;;;4.20;99.90;;;;;;5047006;28;20025;-71
2021/04/14 08:35:45;;;;;;;7.35;5.85;;;4.10;99.90;;;;;;5041282;28;20474;-71
2021/04/14 08:38:13;;;;;;;9.52;5.38;;;4.30;99.90;;;;;;5047778;28;20391;-71
2021/04/14 08:41:21;;;;;;;8.30;5.75;;;4.50;99.90;;;;;;5047507;28;20029;-71
2021/04/14 08:43:50;;;;;;;8.32;4.88;;;4.70;99.90;;;;;;5039750;28;20112;-72
2021/04/14 08:46:21;;;;;;;8.93;5.20;;;4.80;99.90;;;;;;5039816;28;20074;-72
2021/04/14 08:48:53;;;;;;;6.18;4.50;;;5.40;99.90;;;;;;5041475;28;20052;-71
2021/04/14 08:51:20;;;;;;;5.70;4.50;;;5.30;99.90;;;;;;5028261;28;20036;-71
2021/04/14 08:53:47;;;;;;;5.32;4.15;;;5.10;99.90;;;;;;5053476;28;20025;-72
2021/04/14 08:56:14;;;;;;;6.00;4.10;;;4.80;99.90;;;;;;5041246;28;20668;-71
2021/04/14 08:58:40;;;;;;;6.47;4.55;;;4.90;99.90;;;;;;5040655;28;20033;-70
2021/04/14 09:01:11;;;;;;;5.30;4.15;;;4.70;99.90;;;;;;5046825;28;20072;-72
2021/04/14 09:03:40;;;;;;;6.70;4.13;;;4.80;99.90;;;;;;5046842;28;20537;-72
2021/04/14 09:06:08;;;;;;;6.32;4.13;;;4.90;99.90;;;;;;5033907;28;20033;-72
2021/04/14 09:08:34;;;;;;;6.50;3.88;;;5.20;99.90;;;;;;5032406;28;20064;-72
2021/04/14 09:11:06;;;;;;;5.80;3.67;;;5.30;99.90;;;;;;5042573;28;20395;-72
2021/04/14 09:13:47;;;;;;;4.82;3.25;;;5.10;99.90;;;;;;5039826;28;20029;-72
2021/04/14 09:16:26;;;;;;;3.92;3.17;;;5.10;99.90;;;;;;5042094;28;20540;-72
2021/04/14 09:18:51;;;;;;;4.63;3.13;;;5.10;99.90;;;;;;5032471;28;20025;-72
2021/04/14 09:21:23;;;;;;;5.90;3.42;;;5.50;99.90;;;;;;5032180;28;20391;-72
2021/04/14 09:24:06;;;;;;;5.88;3.13;;;5.60;99.90;;;;;;5020893;28;20021;-71
2021/04/14 09:26:38;;;;;;;8.10;4.18;;;5.90;99.90;;;;;;5035453;28;20048;-72
2021/04/14 09:29:26;;;;;;;5.15;3.65;;;5.80;99.90;;;;;;5042660;28;20395;-72
2021/04/14 09:31:55;;;;;;;6.07;3.72;;;5.90;99.90;;;;;;5028439;23;20034;-72
2021/04/14 09:34:36;;;;;;;6.90;3.90;;;5.60;99.90;;;;;;5020585;28;20492;-71
2021/04/14 09:37:11;;;;;;;7.65;3.72;;;5.40;99.90;;;;;;5043107;28;20093;-72
2021/04/14 09:40:00;;;;;;;5.57;4.10;;;5.20;99.90;;;;;;5002511;28;20061;-72
2021/04/14 09:42:25;;;;;;;8.05;4.55;;;5.00;99.90;;;;;;5032088;28;20029;-72
2021/04/14 09:44:55;;;;;;;5.50;3.72;;;4.90;99.90;;;;;;5020735;28;20033;-71
2021/04/14 09:47:23;;;;;;;7.65;3.38;;;5.20;99.90;;;;;;5015366;28;20025;-71
2021/04/14 09:49:51;;;;;;;5.72;3.65;;;5.10;99.90;;;;;;5025052;28;20036;-71
2021/04/14 09:52:22;;;;;;;3.72;3.35;;;5.30;99.90;;;;;;5026425;28;20029;-72
2021/04/14 09:54:52;;;;;;;6.43;3.47;;;5.70;99.90;;;;;;5025927;28;20478;-72
2021/04/14 09:57:22;;;;;;;4.95;3.42;;;5.80;99.90;;;;;;5043413;28;20098;-72
2021/04/14 09:59:48;;;;;;;6.22;3.17;;;6.00;99.90;;;;;;5038850;28;20047;-72
2021/04/14 10:02:17;;;;;;;4.95;3.25;;;5.80;99.90;;;;;;5040361;28;20104;-71
2021/04/14 10:04:46;;;;;;;3.67;2.78;;;5.60;99.90;;;;;;5043971;28;20077;-72
2021/04/14 10:07:19;;;;;;;4.25;2.63;;;5.90;99.90;;;;;;5042774;28;20531;-71
2021/04/14 10:09:45;;;;;;;3.53;2.40;;;5.60;99.90;;;;;;5044224;28;20029;-72
2021/04/14 10:12:14;;;;;;;3.97;2.47;;;5.20;99.90;;;;;;5036740;28;20101;-72
2021/04/14 10:14:45;;;;;;;5.88;2.30;;;5.30;99.90;;;;;;5019563;28;20033;-71
2021/04/14 10:17:11;;;;;;;3.88;2.30;;;5.50;99.90;;;;;;5041596;28;20017;-71
2021/04/14 10:19:37;;;;;;;4.28;2.42;;;5.50;99.90;;;;;;5039216;28;20017;-72
2021/04/14 10:22:15;;;;;;;3.75;2.40;;;5.60;99.90;;;;;;5015930;28;20022;-71
2021/04/14 10:24:41;;;;;;;3.35;2.28;;;5.60;99.90;;;;;;5025280;28;20036;-72
2021/04/14 10:27:08;;;;;;;3.83;2.28;;;5.60;99.90;;;;;;5032773;28;20022;-71
2021/04/14 10:29:45;;;;;;;7.95;2.50;;;5.60;99.90;;;;;;5026653;28;20052;-71
2021/04/14 10:32:21;;;;;;;3.42;2.50;;;5.70;99.90;;;;;;5040086;28;20038;-71
2021/04/14 10:34:48;;;;;;;7.05;2.50;;;5.70;99.90;;;;;;5039614;28;20424;-71
2021/04/14 10:37:23;;;;;;;4.55;2.53;;;6.00;99.90;;;;;;5014455;28;20116;-72
2021/04/14 10:39:50;;;;;;;3.60;2.30;;;6.30;99.90;;;;;;5040047;28;20109;-71
2021/04/14 10:42:42;;;;;;;4.22;2.55;;;6.40;99.90;;;;;;5045370;28;20029;-71
2021/04/14 10:45:08;;;;;;;6.28;2.58;;;7.00;99.90;;;;;;5041011;28;20049;-71
2021/04/14 10:47:38;;;;;;;3.58;2.40;;;7.40;99.90;;;;;;5032488;28;20097;-72
2021/04/14 10:50:15;;;;;;;4.03;1.90;;;7.20;99.90;;;;;;5021897;28;20024;-71
2021/04/14 10:52:43;;;;;;;5.13;2.20;;;6.90;99.90;;;;;;5036754;28;20063;-71
2021/04/14 10:55:18;;;;;;;5.53;2.00;;;6.80;99.90;;;;;;5044277;28;20053;-71
2021/04/14 10:57:47;;;;;;;7.53;2.38;;;6.40;99.90;;;;;;5024325;28;20376;-72
2021/04/14 11:00:21;;;;;;;4.72;2.13;;;6.30;99.90;;;;;;5041808;28;20025;-71
2021/04/14 11:02:48;;;;;;;4.40;2.03;;;6.10;99.90;;;;;;5036590;28;20013;-72
2021/04/14 11:05:17;;;;;;;6.28;2.28;;;6.10;99.90;;;;;;5035935;28;20029;-72
2021/04/14 11:07:45;;;;;;;4.93;2.15;;;6.10;99.90;;;;;;5030804;28;20021;-72
2021/04/14 11:10:26;;;;;;;7.38;2.28;;;6.10;99.90;;;;;;5041306;28;20048;-71
2021/04/14 11:12:53;;;;;;;2.78;1.85;;;5.70;99.90;;;;;;5043239;28;20021;-71
2021/04/14 11:15:21;;;;;;;5.30;2.40;;;6.00;99.90;;;;;;5039784;28;20379;-72
2021/04/14 11:18:05;;;;;;;4.05;1.60;;;5.80;99.90;;;;;;5019498;28;20017;-72
2021/04/14 11:20:48;;;;;;;4.85;2.35;;;6.10;99.90;;;;;;5043035;28;20032;-72
2021/04/14 11:23:19;;;;;;;3.78;2.10;;;6.00;99.90;;;;;;5033703;28;20045;-71
2021/04/14 11:25:45;;;;;;;3.60;1.90;;;6.40;99.90;;;;;;5028549;28;20017;-71
2021/04/14 11:28:13;;;;;;;5.55;2.15;;;6.30;99.90;;;;;;5013694;28;20076;-71
2021/04/14 11:30:56;;;;;;;4.47;2.33;;;6.50;99.90;;;;;;5034835;28;20533;-71
2021/04/14 11:33:43;;;;;;;2.38;2.10;;;6.70;99.90;;;;;;5030563;28;20071;-71
2021/04/14 11:36:33;;;;;;;5.10;2.30;;;6.50;99.90;;;;;;5033870;28;20021;-70
2021/04/14 11:39:18;;;;;;;2.78;2.00;;;6.80;99.90;;;;;;5035234;28;20063;-72
2021/04/14 11:41:46;;;;;;;4.80;1.85;;;7.40;99.90;;;;;;5029447;28;20027;-71
2021/04/14 11:44:19;;;;;;;3.58;2.55;;;7.60;99.90;;;;;;5035726;28;20022;-71
2021/04/14 11:46:55;;;;;;;3.90;2.10;;;7.80;99.90;;;;;;5034267;28;20032;-71
2021/04/14 11:49:31;;;;;;;2.58;2.38;;;7.80;99.90;;;;;;5032624;28;20063;-71
2021/04/14 11:51:59;;;;;;;2.60;1.92;;;7.10;99.90;;;;;;5037035;28;20026;-72
2021/04/14 11:54:36;;;;;;;3.15;1.98;;;7.10;99.90;;;;;;5034841;28;20060;-72
2021/04/14 11:57:23;;;;;;;4.10;2.33;;;7.50;99.90;;;;;;5034012;28;20067;-72
2021/04/14 12:00:03;;;;;;;2.60;2.40;;;7.50;99.90;;;;;;5015067;28;20017;-72
2021/04/14 12:02:29;;;;;;;2.20;1.90;;;8.00;99.90;;;;;;5033163;28;20029;-71
2021/04/14 12:05:01;;;;;;;4.38;2.25;;;8.60;99.90;;;;;;5034988;28;20025;-71
2021/04/14 12:07:27;;;;;;;3.50;2.47;;;8.50;99.90;;;;;;5035787;28;20103;-71
2021/04/14 12:09:53;;;;;;;3.45;2.17;;;9.00;99.90;;;;;;5015237;28;20025;-71
2021/04/14 12:12:20;;;;;;;4.50;2.13;;;8.10;99.90;;;;;;5034036;28;20470;-71
2021/04/14 12:14:46;;;;;;;5.82;2.75;;;7.00;99.90;;;;;;5033676;28;20479;-71
2021/04/14 12:17:13;;;;;;;3.15;2.38;;;7.60;99.90;;;;;;5036633;28;20030;-72
2021/04/14 12:19:39;;;;;;;3.72;2.38;;;8.00;99.90;;;;;;5036955;28;20017;-71
2021/04/14 12:22:05;;;;;;;3.50;2.55;;;8.10;99.90;;;;;;5035299;28;20542;-71
2021/04/14 12:24:31;;;;;;;3.60;2.47;;;8.20;99.90;;;;;;5043521;28;20048;-71
2021/04/14 12:26:56;;;;;;;3.42;2.40;;;8.20;99.90;;;;;;5040834;28;20032;-71
2021/04/14 12:29:22;;;;;;;3.28;2.60;;;9.00;99.90;;;;;;5040435;28;20057;-72
2021/04/14 12:31:48;;;;;;;2.28;2.00;;;9.40;99.90;;;;;;5042530;28;20125;-71
2021/04/14 12:34:15;;;;;;;6.82;2.38;;;9.20;98.60;;;;;;5047682;28;20033;-71
2021/04/14 12:36:41;;;;;;;2.92;2.25;;;9.10;98.60;;;;;;5046891;28;20056;-71
2021/04/14 12:39:08;;;;;;;2.55;1.90;;;8.40;97.60;;;;;;5022851;28;20022;-71
2021/04/14 12:41:34;;;;;;;3.35;2.50;;;9.20;98.40;;;;;;5024219;28;20079;-71
2021/04/14 12:44:00;;;;;;;3.45;2.30;;;8.90;95.20;;;;;;5034767;28;20028;-72
2021/04/14 12:46:26;;;;;;;4.32;2.30;;;9.10;97.50;;;;;;5017987;28;20029;-71
2021/04/14 12:48:52;;;;;;;2.22;1.80;;;9.60;95.10;;;;;;5030170;28;20026;-71
2021/04/14 12:51:39;;;;;;;2.55;2.17;;;9.40;94.90;;;;;;5031432;28;20049;-71
2021/04/14 12:54:13;;;;;;;3.15;1.95;;;9.60;93.80;;;;;;5020921;28;20383;-72
2021/04/14 12:56:42;;;;;;;4.35;1.98;;;10.10;86.80;;;;;;5033679;28;20021;-72
2021/04/14 12:59:14;;;;;;;3.13;1.80;;;9.70;89.80;;;;;;5036204;28;20021;-72
2021/04/14 13:01:41;;;;;;;2.33;1.83;;;10.30;87.10;;;;;;5024242;28;20021;-71
2021/04/14 13:04:31;;;;;;;3.50;2.20;;;11.00;87.00;;;;;;5033833;28;20068;-72
2021/04/14 13:07:02;;;;;;;2.15;1.90;;;11.50;82.00;;;;;;5015983;28;20052;-72
2021/04/14 13:09:29;;;;;;;2.92;2.15;;;11.70;83.90;;;;;;5034513;28;20364;-71
2021/04/14 13:12:31;;;;;;;1.77;1.67;;;12.40;80.20;;;;;;5031529;28;20022;-72